Time;durP1;ratioP1;P1;durP2;ratioP2;P2;SDS_P1;SDS_P2;PMS_P1;PMS_P2;Temp;Humidity;BMP_temperature;BMP_pressure;BME280_temperature;BME280_humidity;BME280_pressure;Samples;Min_cycle;Max_cycle;Signal;HPM_P1;HPM_P2
2023/09/05 00:01:32;;;;;;;8.18;4.78;;;19.30;97.60;;;;;;6272682;22;20016;-69
2023/09/05 00:04:18;;;;;;;6.80;4.97;;;19.30;97.70;;;;;;6273230;22;20511;-69
2023/09/05 00:07:05;;;;;;;7.28;4.70;;;19.30;97.80;;;;;;6271539;22;20016;-69
2023/09/05 00:09:51;;;;;;;6.72;4.32;;;19.30;97.80;;;;;;6272874;22;20011;-68
2023/09/05 00:12:41;;;;;;;6.60;4.75;;;19.30;97.90;;;;;;6272580;22;20086;-69
2023/09/05 00:15:27;;;;;;;7.43;4.75;;;19.30;98.10;;;;;;6271234;22;20012;-69
2023/09/05 00:18:13;;;;;;;9.02;4.63;;;19.20;98.10;;;;;;6271742;22;20110;-69
2023/09/05 00:20:59;;;;;;;5.88;4.35;;;19.20;98.20;;;;;;6268741;22;20007;-69
2023/09/05 00:23:49;;;;;;;6.13;4.38;;;19.20;98.30;;;;;;6271642;22;20027;-70
2023/09/05 00:26:35;;;;;;;6.57;4.43;;;19.20;98.50;;;;;;6269393;22;20016;-70
2023/09/05 00:29:23;;;;;;;6.50;3.85;;;19.20;98.60;;;;;;6271802;22;20068;-69
2023/09/05 00:32:10;;;;;;;6.53;3.95;;;19.10;98.70;;;;;;6271037;22;20011;-69
2023/09/05 00:34:56;;;;;;;6.60;4.40;;;19.10;98.70;;;;;;6273444;22;20019;-70
2023/09/05 00:37:42;;;;;;;6.78;3.97;;;19.10;98.80;;;;;;6272622;22;20004;-68
2023/09/05 00:40:28;;;;;;;6.57;4.15;;;19.10;98.90;;;;;;6270170;22;20014;-69
2023/09/05 00:43:14;;;;;;;6.10;4.40;;;19.00;98.90;;;;;;6271897;22;20094;-68
2023/09/05 00:45:59;;;;;;;8.10;4.43;;;19.00;99.00;;;;;;6269399;22;19999;-68
2023/09/05 00:48:45;;;;;;;6.68;4.75;;;19.00;99.10;;;;;;6270966;22;20066;-67
2023/09/05 00:51:32;;;;;;;7.30;4.53;;;19.00;99.20;;;;;;6267921;22;20012;-67
2023/09/05 00:54:18;;;;;;;5.55;3.88;;;19.00;99.30;;;;;;6272539;22;20015;-67
2023/09/05 00:57:05;;;;;;;6.45;3.60;;;19.00;99.30;;;;;;6272674;22;20012;-67
2023/09/05 00:59:52;;;;;;;5.47;3.63;;;18.90;99.40;;;;;;6271207;22;20018;-66
2023/09/05 01:02:38;;;;;;;7.13;4.88;;;18.90;99.50;;;;;;6271969;22;20043;-67
2023/09/05 01:05:27;;;;;;;6.22;3.80;;;18.90;99.50;;;;;;6271609;22;20003;-67
2023/09/05 01:08:23;;;;;;;5.90;3.97;;;18.90;99.60;;;;;;6269990;22;20011;-67
2023/09/05 01:11:12;;;;;;;5.65;4.20;;;18.90;99.60;;;;;;6270469;22;20011;-67
2023/09/05 01:13:58;;;;;;;5.95;4.10;;;18.90;99.70;;;;;;6270958;22;20063;-67
2023/09/05 01:16:45;;;;;;;8.48;4.43;;;18.80;99.70;;;;;;6272143;22;20207;-67
2023/09/05 01:19:38;;;;;;;7.40;4.03;;;18.80;99.70;;;;;;6272038;22;20031;-67
2023/09/05 01:22:37;;;;;;;5.68;3.90;;;18.80;99.80;;;;;;6271068;22;20031;-67
2023/09/05 01:25:24;;;;;;;5.95;3.83;;;18.80;99.90;;;;;;6270813;22;20004;-67
2023/09/05 01:28:11;;;;;;;5.78;4.13;;;18.80;99.90;;;;;;6270866;22;20046;-68
2023/09/05 01:30:57;;;;;;;5.68;3.63;;;18.80;99.90;;;;;;6270952;22;20074;-68
2023/09/05 01:33:43;;;;;;;5.18;3.50;;;18.80;99.90;;;;;;6271129;22;20454;-68
2023/09/05 01:36:29;;;;;;;6.15;4.05;;;18.70;99.90;;;;;;6271393;22;20003;-69
2023/09/05 01:39:15;;;;;;;5.05;3.83;;;18.70;99.90;;;;;;6271377;22;20063;-69
2023/09/05 01:42:01;;;;;;;5.97;4.00;;;18.70;99.90;;;;;;6269647;22;20101;-69
2023/09/05 01:44:47;;;;;;;5.68;3.80;;;18.70;99.90;;;;;;6271621;22;20142;-68
2023/09/05 01:47:33;;;;;;;5.82;4.20;;;18.70;99.90;;;;;;6271366;22;20008;-69
2023/09/05 01:50:19;;;;;;;4.80;3.55;;;18.60;99.90;;;;;;6271178;22;20083;-69
2023/09/05 01:53:05;;;;;;;7.32;4.15;;;18.60;99.90;;;;;;6271148;22;20022;-69
2023/09/05 01:55:51;;;;;;;6.28;4.05;;;18.60;99.90;;;;;;6271366;22;20011;-69
2023/09/05 01:58:37;;;;;;;7.72;4.00;;;18.60;99.90;;;;;;6271479;22;20012;-68
2023/09/05 02:01:23;;;;;;;6.07;3.72;;;18.60;99.90;;;;;;6270244;22;20099;-68
2023/09/05 02:04:09;;;;;;;6.40;4.75;;;18.60;99.90;;;;;;6250166;22;20046;-69
2023/09/05 02:06:55;;;;;;;5.90;3.78;;;18.50;99.90;;;;;;6270790;22;20012;-69
2023/09/05 02:09:41;;;;;;;7.45;3.50;;;18.50;99.90;;;;;;6249388;22;20008;-69
2023/09/05 02:12:27;;;;;;;5.95;4.85;;;18.50;99.90;;;;;;6268317;22;20023;-69
2023/09/05 02:15:13;;;;;;;5.32;4.13;;;18.50;99.90;;;;;;6272062;22;20084;-69
2023/09/05 02:18:02;;;;;;;7.25;3.83;;;18.50;99.90;;;;;;6270919;22;20026;-69
2023/09/05 02:20:48;;;;;;;5.47;3.83;;;18.50;99.90;;;;;;6270756;22;20015;-68
2023/09/05 02:23:33;;;;;;;5.15;3.90;;;18.50;99.90;;;;;;6271662;22;20023;-68
2023/09/05 02:26:19;;;;;;;6.13;3.78;;;18.50;99.90;;;;;;6249005;22;20040;-68
2023/09/05 02:29:05;;;;;;;5.18;3.72;;;18.50;99.90;;;;;;6270890;22;20012;-68
2023/09/05 02:31:51;;;;;;;5.60;4.03;;;18.50;99.90;;;;;;6275655;22;20015;-69
2023/09/05 02:34:38;;;;;;;6.50;3.95;;;18.40;99.90;;;;;;6271310;22;20012;-69
2023/09/05 02:37:24;;;;;;;6.95;3.85;;;18.40;99.90;;;;;;6248665;22;20012;-69
2023/09/05 02:40:10;;;;;;;5.20;3.33;;;18.40;99.90;;;;;;6270714;22;20022;-69
2023/09/05 02:42:56;;;;;;;5.72;3.25;;;18.40;99.90;;;;;;6249939;22;20102;-69
2023/09/05 02:45:51;;;;;;;4.85;3.70;;;18.40;99.90;;;;;;6271650;22;20007;-69
2023/09/05 02:48:39;;;;;;;5.15;3.70;;;18.40;99.90;;;;;;6272615;22;20008;-69
2023/09/05 02:51:25;;;;;;;6.85;3.63;;;18.30;99.90;;;;;;6272506;22;20015;-69
2023/09/05 02:54:11;;;;;;;4.22;2.83;;;18.30;99.90;;;;;;6273291;22;20039;-69
2023/09/05 02:56:57;;;;;;;4.10;3.00;;;18.30;99.90;;;;;;6272481;22;20012;-69
2023/09/05 02:59:42;;;;;;;5.28;3.50;;;18.30;99.90;;;;;;6272502;22;20018;-69
2023/09/05 03:02:28;;;;;;;4.35;3.53;;;18.30;99.90;;;;;;6269685;22;20020;-69
2023/09/05 03:05:15;;;;;;;5.05;3.35;;;18.30;99.90;;;;;;6273265;22;20011;-69
2023/09/05 03:08:01;;;;;;;4.78;3.50;;;18.20;99.90;;;;;;6274173;22;20008;-69
2023/09/05 03:10:51;;;;;;;5.60;3.38;;;18.20;99.90;;;;;;6273395;22;20008;-69
2023/09/05 03:13:37;;;;;;;4.57;3.30;;;18.30;99.90;;;;;;6272233;22;20019;-69
2023/09/05 03:16:23;;;;;;;4.85;3.67;;;18.20;99.90;;;;;;6270928;22;20012;-69
2023/09/05 03:19:11;;;;;;;5.93;3.65;;;18.20;99.90;;;;;;6270235;22;20473;-69
2023/09/05 03:21:57;;;;;;;6.93;3.28;;;18.20;99.90;;;;;;6270902;22;20028;-69
2023/09/05 03:24:43;;;;;;;7.03;4.38;;;18.20;99.90;;;;;;6272572;22;20008;-69
2023/09/05 03:27:30;;;;;;;4.30;3.30;;;18.20;99.90;;;;;;6272189;22;20008;-69
2023/09/05 03:30:16;;;;;;;4.90;3.63;;;18.20;99.90;;;;;;6273364;22;20430;-69
2023/09/05 03:33:02;;;;;;;4.20;3.58;;;18.10;99.90;;;;;;6270073;22;20008;-69
2023/09/05 03:35:48;;;;;;;5.07;3.25;;;18.10;99.90;;;;;;6272005;22;20007;-68
2023/09/05 03:38:34;;;;;;;4.38;3.50;;;18.10;99.90;;;;;;6271931;22;20008;-68
2023/09/05 03:41:20;;;;;;;5.05;3.88;;;18.10;99.90;;;;;;6272556;22;20016;-68
2023/09/05 03:44:06;;;;;;;4.75;3.75;;;18.10;99.90;;;;;;6271443;22;20007;-69
2023/09/05 03:46:51;;;;;;;6.68;3.50;;;18.00;99.90;;;;;;6269546;22;20012;-69
2023/09/05 03:49:37;;;;;;;7.38;3.40;;;18.00;99.90;;;;;;6272331;22;20004;-69
2023/09/05 03:52:23;;;;;;;6.13;3.97;;;18.00;99.90;;;;;;6272956;22;20011;-66
2023/09/05 03:55:09;;;;;;;4.15;3.50;;;18.00;99.90;;;;;;6272911;22;20069;-72
2023/09/05 03:57:55;;;;;;;4.82;3.88;;;18.00;99.90;;;;;;6272578;22;20097;-72
2023/09/05 04:00:41;;;;;;;5.72;4.25;;;17.90;99.90;;;;;;6272296;22;19999;-72
2023/09/05 04:03:27;;;;;;;5.70;3.70;;;18.00;99.90;;;;;;6271224;22;20429;-72
2023/09/05 04:06:13;;;;;;;4.85;3.45;;;17.90;99.90;;;;;;6272286;22;20012;-73
2023/09/05 04:08:59;;;;;;;5.03;3.65;;;17.90;99.90;;;;;;6273378;22;20038;-72
2023/09/05 04:11:45;;;;;;;6.03;3.88;;;17.90;99.90;;;;;;6250139;22;20071;-73
2023/09/05 04:14:31;;;;;;;6.55;3.92;;;17.90;99.90;;;;;;6269018;22;20065;-73
2023/09/05 04:17:17;;;;;;;4.45;3.25;;;17.90;99.90;;;;;;6272145;22;20023;-72
2023/09/05 04:20:06;;;;;;;5.07;3.35;;;17.80;99.90;;;;;;6271844;22;20149;-70
2023/09/05 04:22:52;;;;;;;6.38;3.85;;;17.90;99.90;;;;;;6269651;22;20084;-71
2023/09/05 04:25:40;;;;;;;5.03;4.03;;;17.80;99.90;;;;;;6249355;22;20065;-71
2023/09/05 04:28:27;;;;;;;4.00;3.13;;;17.80;99.90;;;;;;6273141;22;20016;-72
2023/09/05 04:31:18;;;;;;;6.05;3.70;;;17.80;99.90;;;;;;6269831;22;20012;-72
2023/09/05 04:34:04;;;;;;;4.20;3.38;;;17.80;99.90;;;;;;6273514;22;20008;-72
2023/09/05 04:36:50;;;;;;;6.28;3.45;;;17.80;99.90;;;;;;6271516;22;20396;-72
2023/09/05 04:39:37;;;;;;;4.53;3.83;;;17.80;99.90;;;;;;6269950;22;20007;-72
2023/09/05 04:42:25;;;;;;;5.75;3.85;;;17.80;99.90;;;;;;6273663;22;20020;-72
2023/09/05 04:45:11;;;;;;;5.13;3.88;;;17.90;99.90;;;;;;6271109;22;20007;-73
2023/09/05 04:47:57;;;;;;;6.93;3.83;;;17.80;99.90;;;;;;6271096;22;20016;-73
2023/09/05 04:50:43;;;;;;;6.50;3.55;;;17.80;99.90;;;;;;6271804;22;20087;-73
2023/09/05 04:53:30;;;;;;;5.70;3.63;;;17.80;99.90;;;;;;6271443;22;20086;-69
2023/09/05 04:56:17;;;;;;;5.45;3.85;;;17.80;99.90;;;;;;6270483;22;20007;-68
2023/09/05 04:59:02;;;;;;;4.70;3.38;;;17.90;99.90;;;;;;6271182;22;20087;-67
2023/09/05 05:01:48;;;;;;;5.00;3.72;;;17.80;99.90;;;;;;6271962;22;20016;-72
2023/09/05 05:04:34;;;;;;;4.63;3.50;;;17.90;99.90;;;;;;6271050;22;20376;-68
2023/09/05 05:07:21;;;;;;;6.43;4.00;;;17.90;99.90;;;;;;6269373;22;20012;-69
2023/09/05 05:10:07;;;;;;;7.85;4.57;;;17.90;99.90;;;;;;6251304;22;20228;-73
2023/09/05 05:12:53;;;;;;;5.10;3.67;;;17.90;99.90;;;;;;6248573;22;20089;-73
2023/09/05 05:15:39;;;;;;;6.05;3.40;;;17.90;99.90;;;;;;6271962;22;20004;-73
2023/09/05 05:18:25;;;;;;;6.60;3.63;;;18.00;99.90;;;;;;6270785;22;20027;-73
2023/09/05 05:21:11;;;;;;;7.82;4.10;;;18.00;99.90;;;;;;6249195;22;20012;-72
2023/09/05 05:23:57;;;;;;;5.43;3.30;;;18.00;99.90;;;;;;6271627;22;20094;-73
2023/09/05 05:26:43;;;;;;;4.40;3.60;;;18.10;99.90;;;;;;6268327;22;20012;-73
2023/09/05 05:29:32;;;;;;;5.05;3.40;;;18.10;99.90;;;;;;6270849;22;20008;-73
2023/09/05 05:32:18;;;;;;;5.93;3.97;;;18.20;99.90;;;;;;6269282;22;20386;-73
2023/09/05 05:35:05;;;;;;;5.45;3.58;;;18.20;99.90;;;;;;6269591;22;20073;-73
2023/09/05 05:37:51;;;;;;;7.32;4.03;;;18.20;99.90;;;;;;6270913;22;20137;-73
2023/09/05 05:40:37;;;;;;;8.07;4.15;;;18.20;99.90;;;;;;6272146;22;20043;-73
2023/09/05 05:43:22;;;;;;;4.55;3.13;;;18.30;99.90;;;;;;6272563;22;20020;-73
2023/09/05 05:46:09;;;;;;;7.18;3.75;;;18.30;99.90;;;;;;6278010;22;20027;-73
2023/09/05 05:48:57;;;;;;;6.28;3.55;;;18.40;99.90;;;;;;6277567;22;20039;-73
2023/09/05 05:51:43;;;;;;;6.13;3.30;;;18.40;99.90;;;;;;6273159;22;20011;-73
2023/09/05 05:54:29;;;;;;;10.27;4.78;;;18.40;99.90;;;;;;6270677;22;20448;-73
2023/09/05 05:57:15;;;;;;;6.45;3.58;;;18.50;99.90;;;;;;6250613;22;20012;-73
2023/09/05 06:00:04;;;;;;;5.80;3.72;;;18.50;99.90;;;;;;6270377;22;20014;-73
2023/09/05 06:02:51;;;;;;;6.85;3.35;;;18.60;99.90;;;;;;6269955;22;20113;-73
2023/09/05 06:05:39;;;;;;;7.13;3.65;;;18.60;99.90;;;;;;6270687;22;20038;-71
2023/09/05 06:08:25;;;;;;;5.55;4.00;;;18.60;99.90;;;;;;6268252;22;20012;-74
2023/09/05 06:11:11;;;;;;;5.40;3.40;;;18.60;99.90;;;;;;6268513;22;20152;-74
2023/09/05 06:13:57;;;;;;;5.47;3.40;;;18.70;99.90;;;;;;6271581;22;20449;-73
2023/09/05 06:16:47;;;;;;;6.00;3.08;;;18.70;99.90;;;;;;6268802;22;20004;-73
2023/09/05 06:19:33;;;;;;;5.20;3.30;;;18.80;99.90;;;;;;6269976;22;20047;-73
2023/09/05 06:22:19;;;;;;;5.97;3.63;;;18.90;99.90;;;;;;6267740;22;20020;-71
2023/09/05 06:25:05;;;;;;;5.90;3.42;;;19.00;99.90;;;;;;6271467;22;20012;-71
2023/09/05 06:27:51;;;;;;;5.07;3.45;;;19.00;99.90;;;;;;6270422;22;20346;-71
2023/09/05 06:30:37;;;;;;;4.60;3.10;;;19.10;99.90;;;;;;6270150;22;20329;-73
2023/09/05 06:33:23;;;;;;;3.72;2.58;;;19.20;99.90;;;;;;6247876;22;20123;-74
2023/09/05 06:36:11;;;;;;;5.35;2.60;;;19.20;99.90;;;;;;6268847;22;20004;-64
2023/09/05 06:38:57;;;;;;;5.80;3.03;;;19.40;99.90;;;;;;6270520;22;20353;-69
2023/09/05 06:41:43;;;;;;;5.43;2.90;;;19.50;99.90;;;;;;6270771;22;20024;-79
2023/09/05 06:44:29;;;;;;;7.15;2.78;;;19.50;99.90;;;;;;6267240;22;20007;-79
2023/09/05 06:47:15;;;;;;;4.40;2.90;;;19.60;99.90;;;;;;6270375;22;20350;-78
2023/09/05 06:50:04;;;;;;;5.00;2.90;;;19.70;99.90;;;;;;6248241;22;20007;-79
2023/09/05 06:52:50;;;;;;;5.93;2.83;;;19.80;99.80;;;;;;6269768;22;20015;-78
2023/09/05 06:55:36;;;;;;;6.40;2.95;;;19.90;99.70;;;;;;6271061;22;20521;-78
2023/09/05 06:58:24;;;;;;;6.63;3.08;;;19.90;99.60;;;;;;6268328;22;20007;-79
2023/09/05 07:01:10;;;;;;;4.32;2.90;;;20.00;99.40;;;;;;6270728;22;20011;-79
2023/09/05 07:03:56;;;;;;;5.72;2.72;;;20.00;99.30;;;;;;6248608;22;20012;-79
2023/09/05 07:06:42;;;;;;;6.28;3.08;;;20.00;99.30;;;;;;6270600;22;20159;-79
2023/09/05 07:09:28;;;;;;;7.85;2.92;;;20.10;99.10;;;;;;6270654;22;20011;-80
2023/09/05 07:12:14;;;;;;;4.07;2.50;;;20.20;98.90;;;;;;6248368;22;20005;-79
2023/09/05 07:15:00;;;;;;;4.50;2.72;;;20.20;99.00;;;;;;6251918;22;20007;-79
2023/09/05 07:17:46;;;;;;;4.05;2.47;;;20.30;98.60;;;;;;6247718;22;20050;-80
2023/09/05 07:20:32;;;;;;;4.35;2.55;;;20.30;98.50;;;;;;6245942;22;20267;-79
2023/09/05 07:23:18;;;;;;;3.83;2.47;;;20.50;98.50;;;;;;6246618;22;20015;-79
2023/09/05 07:26:05;;;;;;;3.45;1.85;;;20.50;98.40;;;;;;6271558;22;20012;-79
2023/09/05 07:28:51;;;;;;;4.93;2.42;;;20.60;98.20;;;;;;6247688;22;20011;-80
2023/09/05 07:31:38;;;;;;;5.70;3.08;;;20.60;98.00;;;;;;6271179;22;20037;-79
2023/09/05 07:34:25;;;;;;;4.63;2.70;;;20.70;97.90;;;;;;6271333;22;20083;-80
2023/09/05 07:37:11;;;;;;;5.85;2.70;;;20.70;97.70;;;;;;6249177;22;20054;-79
2023/09/05 07:39:57;;;;;;;13.35;3.17;;;20.80;97.80;;;;;;6271972;22;20008;-79
2023/09/05 07:42:43;;;;;;;5.00;2.22;;;20.80;97.60;;;;;;6250497;22;20543;-79
2023/09/05 07:45:29;;;;;;;6.90;2.33;;;20.90;97.60;;;;;;6270025;22;20064;-79
2023/09/05 07:48:15;;;;;;;5.32;2.90;;;20.90;97.40;;;;;;6250021;22;20034;-80
2023/09/05 07:51:07;;;;;;;4.82;2.60;;;21.00;97.40;;;;;;6270051;22;20417;-79
2023/09/05 07:54:10;;;;;;;4.22;2.50;;;21.00;97.10;;;;;;6271954;22;20016;-81
2023/09/05 07:56:56;;;;;;;3.00;2.05;;;21.10;97.00;;;;;;6249392;22;20410;-80
2023/09/05 07:59:42;;;;;;;3.95;2.15;;;21.20;97.00;;;;;;6270129;22;20008;-78
2023/09/05 08:02:28;;;;;;;3.45;2.30;;;21.20;96.90;;;;;;6272091;22;20028;-80
2023/09/05 08:05:14;;;;;;;3.90;2.47;;;21.30;96.80;;;;;;6273570;22;20556;-80
2023/09/05 08:08:00;;;;;;;5.20;2.42;;;21.30;96.70;;;;;;6272011;22;20011;-79
2023/09/05 08:10:47;;;;;;;3.90;2.95;;;21.40;96.60;;;;;;6249830;22;20011;-80
2023/09/05 08:13:33;;;;;;;4.75;2.40;;;21.40;96.60;;;;;;6271588;22;20012;-79
2023/09/05 08:16:19;;;;;;;4.65;2.38;;;21.50;96.40;;;;;;6270282;22;20090;-79
2023/09/05 08:19:05;;;;;;;4.90;2.22;;;21.50;96.20;;;;;;6268817;22;20027;-79
2023/09/05 08:21:51;;;;;;;6.15;2.90;;;21.60;96.10;;;;;;6269920;22;20019;-76
2023/09/05 08:24:37;;;;;;;5.05;2.75;;;21.70;96.10;;;;;;6272173;22;20015;-81
2023/09/05 08:27:28;;;;;;;4.95;2.20;;;21.70;95.90;;;;;;6272235;22;20007;-80
2023/09/05 08:30:15;;;;;;;3.65;2.28;;;21.80;95.90;;;;;;6250065;22;20016;-80
2023/09/05 08:33:02;;;;;;;5.97;2.45;;;21.90;95.60;;;;;;6249594;22;20438;-81
2023/09/05 08:35:48;;;;;;;6.55;2.33;;;21.90;95.70;;;;;;6248213;22;20022;-80
2023/09/05 08:38:37;;;;;;;4.70;2.25;;;22.00;95.60;;;;;;6251445;22;20050;-78
2023/09/05 08:41:23;;;;;;;2.50;1.67;;;22.00;95.40;;;;;;6249066;22;20014;-79
2023/09/05 08:44:17;;;;;;;3.97;1.77;;;22.10;95.20;;;;;;6247570;22;20074;-80
2023/09/05 08:47:03;;;;;;;3.95;2.00;;;22.10;95.20;;;;;;6248966;22;20007;-81
2023/09/05 08:49:50;;;;;;;3.42;2.10;;;22.20;95.10;;;;;;6272709;22;20047;-80
2023/09/05 08:52:39;;;;;;;5.38;2.13;;;22.30;95.10;;;;;;6249522;22;20440;-79
2023/09/05 08:55:25;;;;;;;4.53;1.67;;;22.40;94.90;;;;;;6270743;22;20019;-80
2023/09/05 08:58:13;;;;;;;3.08;2.00;;;22.50;94.90;;;;;;6254400;22;20050;-78
2023/09/05 09:00:59;;;;;;;3.65;2.33;;;22.50;94.80;;;;;;6276540;22;20452;-81
2023/09/05 09:03:45;;;;;;;2.85;1.83;;;22.60;94.60;;;;;;6264678;22;20099;-80
2023/09/05 09:06:33;;;;;;;6.10;2.13;;;22.70;94.40;;;;;;6272981;22;20008;-80
2023/09/05 09:09:34;;;;;;;4.25;2.15;;;22.80;94.20;;;;;;6269933;22;20393;-81
2023/09/05 09:12:31;;;;;;;2.85;1.90;;;22.80;94.10;;;;;;6241834;22;20065;-80
2023/09/05 09:15:17;;;;;;;2.53;1.80;;;22.90;93.90;;;;;;6243307;22;20011;-80
2023/09/05 09:18:11;;;;;;;2.42;1.60;;;23.00;93.70;;;;;;6270512;22;20539;-80
2023/09/05 09:21:02;;;;;;;4.00;1.60;;;23.10;93.50;;;;;;6270544;22;20035;-80
2023/09/05 09:23:48;;;;;;;2.20;1.70;;;23.10;93.40;;;;;;6269694;22;20015;-80
2023/09/05 09:26:36;;;;;;;5.97;1.80;;;23.20;93.10;;;;;;6249302;22;20012;-75
2023/09/05 09:29:22;;;;;;;2.95;2.00;;;23.20;92.90;;;;;;6248376;22;20007;-78
2023/09/05 09:32:08;;;;;;;8.48;3.00;;;23.30;92.80;;;;;;6271684;22;20008;-72
2023/09/05 09:34:55;;;;;;;6.82;2.53;;;23.40;92.60;;;;;;6271963;22;20019;-74
2023/09/05 09:37:41;;;;;;;2.55;1.48;;;23.50;92.60;;;;;;6267738;22;20315;-70
2023/09/05 09:40:36;;;;;;;9.43;2.53;;;23.50;92.70;;;;;;6265752;22;20023;-70
2023/09/05 09:43:22;;;;;;;4.88;1.70;;;23.70;92.50;;;;;;6270427;22;20475;-70
2023/09/05 09:46:11;;;;;;;6.43;1.73;;;23.70;92.70;;;;;;6271957;22;20003;-70
2023/09/05 09:48:59;;;;;;;2.03;1.48;;;23.70;92.40;;;;;;6271894;22;20012;-69
2023/09/05 09:51:48;;;;;;;3.30;1.67;;;23.80;92.10;;;;;;6270365;22;20015;-70
2023/09/05 09:54:38;;;;;;;4.72;1.45;;;23.90;91.90;;;;;;6271039;22;20011;-70
2023/09/05 09:57:30;;;;;;;3.70;1.63;;;24.00;91.70;;;;;;6269608;22;20008;-70
2023/09/05 10:00:18;;;;;;;1.92;1.60;;;24.10;91.60;;;;;;6270159;22;20012;-70
2023/09/05 10:03:08;;;;;;;3.67;1.60;;;24.10;91.30;;;;;;6270969;22;20019;-70
2023/09/05 10:05:55;;;;;;;6.15;1.60;;;24.20;91.30;;;;;;6272476;22;20015;-71
2023/09/05 10:08:44;;;;;;;12.98;1.67;;;24.20;91.10;;;;;;6270440;22;20496;-69
2023/09/05 10:11:32;;;;;;;6.95;1.80;;;24.30;91.00;;;;;;6270146;22;20070;-70
2023/09/05 10:14:19;;;;;;;3.00;1.42;;;24.40;91.10;;;;;;6270111;22;20073;-69
2023/09/05 10:17:05;;;;;;;2.60;1.50;;;24.40;90.80;;;;;;6272832;22;20018;-68
2023/09/05 10:19:53;;;;;;;2.00;1.38;;;24.50;90.90;;;;;;6271104;22;20293;-69
2023/09/05 10:22:39;;;;;;;2.70;1.50;;;24.60;90.50;;;;;;6269745;22;20062;-68
2023/09/05 10:25:27;;;;;;;3.38;1.52;;;24.60;90.30;;;;;;6272067;22;20445;-68
2023/09/05 10:28:13;;;;;;;1.65;1.10;;;24.70;90.20;;;;;;6269571;22;20082;-69
2023/09/05 10:31:18;;;;;;;2.72;1.77;;;24.70;90.10;;;;;;6269553;22;20008;-69
2023/09/05 10:34:04;;;;;;;4.57;1.60;;;24.80;90.10;;;;;;6271332;22;20325;-69
2023/09/05 10:36:50;;;;;;;5.85;1.42;;;24.90;90.30;;;;;;6251697;22;20322;-69
2023/09/05 10:39:36;;;;;;;1.73;1.35;;;24.90;90.10;;;;;;6267751;22;20019;-69
2023/09/05 10:42:31;;;;;;;2.55;1.30;;;25.00;90.00;;;;;;6270631;22;20026;-70
2023/09/05 10:45:29;;;;;;;1.73;1.40;;;25.10;90.00;;;;;;6270041;22;20019;-70
2023/09/05 10:48:38;;;;;;;2.03;1.25;;;25.10;89.80;;;;;;6248445;22;20081;-70
2023/09/05 10:51:25;;;;;;;1.92;1.45;;;25.20;89.60;;;;;;6270749;22;20328;-69
2023/09/05 10:54:30;;;;;;;2.33;1.40;;;25.20;89.40;;;;;;6271681;22;20012;-70
2023/09/05 10:57:34;;;;;;;;;;;25.30;89.50;;;;;;6270663;22;20441;-70
2023/09/05 11:00:21;;;;;;;2.67;1.48;;;25.30;90.20;;;;;;6272753;22;20314;-69
2023/09/05 11:03:12;;;;;;;3.85;1.65;;;25.30;89.40;;;;;;6272359;22;20046;-70
2023/09/05 11:06:00;;;;;;;3.83;1.73;;;25.40;88.90;;;;;;6270479;22;20445;-70
2023/09/05 11:08:57;;;;;;;2.67;1.60;;;25.50;88.50;;;;;;6272223;22;20011;-70
2023/09/05 11:11:45;;;;;;;2.75;1.77;;;25.60;88.30;;;;;;6272979;22;20000;-70
2023/09/05 11:14:33;;;;;;;2.08;1.40;;;25.60;88.30;;;;;;6273841;22;20046;-70
2023/09/05 11:17:20;;;;;;;5.97;1.70;;;25.60;88.50;;;;;;6272286;22;20047;-70
2023/09/05 11:20:07;;;;;;;2.85;1.40;;;25.70;88.00;;;;;;6272420;22;20015;-71
2023/09/05 11:22:53;;;;;;;2.22;1.27;;;25.80;87.80;;;;;;6272845;22;20465;-70
2023/09/05 11:25:53;;;;;;;2.20;1.45;;;25.80;87.40;;;;;;6272351;22;20539;-70
2023/09/05 11:28:40;;;;;;;1.95;1.42;;;25.90;86.90;;;;;;6271286;22;20011;-70
2023/09/05 11:31:27;;;;;;;5.03;1.60;;;25.90;86.50;;;;;;6270449;22;20046;-70
2023/09/05 11:34:16;;;;;;;3.88;2.05;;;26.00;86.40;;;;;;6272367;22;20018;-69
2023/09/05 11:37:02;;;;;;;2.72;1.45;;;26.00;86.40;;;;;;6250035;22;20083;-69
2023/09/05 11:39:49;;;;;;;1.67;1.40;;;26.00;86.10;;;;;;6273106;22;20380;-69
2023/09/05 11:42:35;;;;;;;1.70;1.48;;;26.10;86.80;;;;;;6271422;22;20085;-69
2023/09/05 11:45:22;;;;;;;3.10;1.52;;;26.10;85.90;;;;;;6272625;22;20035;-69
2023/09/05 11:48:14;;;;;;;2.88;1.25;;;26.20;86.00;;;;;;6272805;22;20012;-69
2023/09/05 11:51:00;;;;;;;1.45;1.10;;;26.20;85.80;;;;;;6250210;22;20035;-69
2023/09/05 11:53:46;;;;;;;1.95;1.33;;;26.20;85.70;;;;;;6269492;22;20365;-70
2023/09/05 11:56:32;;;;;;;3.60;1.40;;;26.30;85.30;;;;;;6272697;22;20345;-69
2023/09/05 11:59:18;;;;;;;2.75;1.60;;;26.30;85.20;;;;;;6269755;22;20018;-69
2023/09/05 12:02:14;;;;;;;4.45;1.48;;;26.30;85.10;;;;;;6273051;22;20022;-69
2023/09/05 12:05:01;;;;;;;4.30;1.38;;;26.30;84.70;;;;;;6272573;22;20338;-69
2023/09/05 12:07:55;;;;;;;2.20;1.50;;;26.40;84.90;;;;;;6271362;22;20012;-69
2023/09/05 12:10:55;;;;;;;5.88;1.63;;;26.40;84.90;;;;;;6248926;22;20011;-70
2023/09/05 12:13:45;;;;;;;5.85;1.63;;;26.50;85.00;;;;;;6272912;22;20018;-70
2023/09/05 12:16:31;;;;;;;1.83;1.30;;;26.50;84.70;;;;;;6273472;22;20004;-70
2023/09/05 12:19:17;;;;;;;2.92;1.60;;;26.50;84.50;;;;;;6271126;22;20077;-70
2023/09/05 12:22:03;;;;;;;3.33;1.20;;;26.60;84.40;;;;;;6278465;22;20106;-70
2023/09/05 12:25:15;;;;;;;2.05;1.38;;;26.60;83.90;;;;;;6278792;22;20460;-70
2023/09/05 12:28:16;;;;;;;3.22;1.20;;;26.70;83.90;;;;;;6247974;22;20035;-69
2023/09/05 12:31:21;;;;;;;6.97;1.77;;;26.80;84.10;;;;;;6269315;22;20117;-69
2023/09/05 12:34:06;;;;;;;1.50;1.15;;;26.80;83.80;;;;;;6271549;22;20012;-70
2023/09/05 12:36:52;;;;;;;1.60;1.17;;;26.90;83.80;;;;;;6268121;22;20011;-70
2023/09/05 12:39:38;;;;;;;2.15;1.70;;;27.00;83.80;;;;;;6271065;22;20015;-69
2023/09/05 12:42:25;;;;;;;4.30;1.85;;;27.10;83.30;;;;;;6249908;22;20043;-69
2023/09/05 12:45:13;;;;;;;2.72;1.27;;;27.10;83.40;;;;;;6271292;22;20012;-70
2023/09/05 12:47:59;;;;;;;1.83;1.30;;;27.20;82.40;;;;;;6269960;22;20115;-70
2023/09/05 12:50:48;;;;;;;2.25;1.45;;;27.20;82.30;;;;;;6248282;22;20011;-69
2023/09/05 12:53:34;;;;;;;2.35;1.30;;;27.30;82.30;;;;;;6271729;22;20122;-69
2023/09/05 12:56:23;;;;;;;2.22;1.40;;;27.40;82.10;;;;;;6272954;22;20035;-70
2023/09/05 12:59:09;;;;;;;1.77;1.10;;;27.50;82.40;;;;;;6248988;22;20012;-69
2023/09/05 13:01:56;;;;;;;1.65;1.08;;;27.50;81.40;;;;;;6248318;22;20023;-70
2023/09/05 13:04:42;;;;;;;2.85;1.38;;;27.60;81.20;;;;;;6272838;22;20310;-70
2023/09/05 13:07:28;;;;;;;3.45;1.10;;;27.60;80.40;;;;;;6269213;22;20074;-70
2023/09/05 13:10:14;;;;;;;2.67;1.42;;;27.60;80.50;;;;;;6270732;22;20015;-70
2023/09/05 13:13:01;;;;;;;3.35;1.45;;;27.70;80.70;;;;;;6268655;22;20004;-70
2023/09/05 13:15:47;;;;;;;2.13;1.45;;;27.80;80.80;;;;;;6271928;22;20726;-70
2023/09/05 13:18:33;;;;;;;2.30;1.55;;;27.90;80.40;;;;;;6268862;22;20113;-73
2023/09/05 13:21:19;;;;;;;1.92;1.17;;;28.00;79.90;;;;;;6272883;22;20016;-68
2023/09/05 13:24:06;;;;;;;3.00;1.52;;;28.00;79.30;;;;;;6268967;22;20091;-67
2023/09/05 13:26:54;;;;;;;2.50;1.50;;;28.10;79.30;;;;;;6270307;22;20011;-68
2023/09/05 13:29:40;;;;;;;1.92;1.33;;;28.20;78.90;;;;;;6272332;22;20114;-69
2023/09/05 13:32:26;;;;;;;1.73;1.33;;;28.30;78.70;;;;;;6268454;22;20007;-70
2023/09/05 13:35:12;;;;;;;2.58;1.35;;;28.30;78.70;;;;;;6270894;22;20008;-70
2023/09/05 13:37:57;;;;;;;3.53;1.20;;;28.30;78.20;;;;;;6271121;22;20015;-70
2023/09/05 13:40:43;;;;;;;2.60;1.58;;;28.40;77.80;;;;;;6270335;22;20004;-70
2023/09/05 13:43:30;;;;;;;2.30;1.52;;;28.50;77.80;;;;;;6271582;22;20102;-70
2023/09/05 13:46:16;;;;;;;2.55;1.38;;;28.60;77.20;;;;;;6272684;22;20019;-70
2023/09/05 13:49:03;;;;;;;3.28;1.35;;;28.60;77.10;;;;;;6269927;22;20016;-70
2023/09/05 13:51:49;;;;;;;1.88;1.33;;;28.70;76.90;;;;;;6273194;22;20012;-69
2023/09/05 13:54:35;;;;;;;6.70;1.50;;;28.70;76.50;;;;;;6271079;22;20381;-69
2023/09/05 13:57:22;;;;;;;2.25;1.40;;;28.80;76.10;;;;;;6272574;22;20062;-69
2023/09/05 14:00:09;;;;;;;2.30;1.40;;;28.80;75.90;;;;;;6271644;22;20086;-70
2023/09/05 14:02:55;;;;;;;1.83;1.30;;;28.80;75.40;;;;;;6270325;22;20030;-70
2023/09/05 14:05:41;;;;;;;1.75;1.30;;;28.90;75.50;;;;;;6271033;22;20007;-70
2023/09/05 14:08:27;;;;;;;1.83;1.50;;;28.90;75.40;;;;;;6270535;22;20010;-70
2023/09/05 14:11:13;;;;;;;3.13;1.40;;;28.90;74.90;;;;;;6270824;22;20014;-70
2023/09/05 14:13:59;;;;;;;3.08;1.35;;;29.00;74.50;;;;;;6270966;22;20043;-71
2023/09/05 14:16:45;;;;;;;1.48;1.02;;;29.00;74.20;;;;;;6271297;22;20154;-71
2023/09/05 14:19:33;;;;;;;1.83;1.27;;;29.00;73.80;;;;;;6251429;22;20031;-71
2023/09/05 14:22:19;;;;;;;1.52;1.35;;;29.10;74.00;;;;;;6272725;22;20016;-71
2023/09/05 14:25:06;;;;;;;2.40;1.20;;;29.10;73.90;;;;;;6271312;22;20598;-70
2023/09/05 14:27:52;;;;;;;1.73;1.20;;;29.10;74.00;;;;;;6269112;22;20086;-69
2023/09/05 14:30:38;;;;;;;1.52;0.90;;;29.10;73.40;;;;;;6268372;22;20014;-70
2023/09/05 14:33:24;;;;;;;1.85;1.40;;;29.20;73.10;;;;;;6268187;22;20015;-71